Terminal Aerodrome Forecast
Issued by NWS Sterling, VA

Current Version | Previous Version | Graphics & Text | Print | Product List | Glossary On
Versions: 1 2 3 4 5 6 7 8 9 10 11 12 13 14 15 16 17 18 19 20
000
FTUS41 KLWX 171720
TAFMRB
TAF
KMRB 171720Z 1718/1818 VRB04KT P6SM BKN040
     FM180200 VRB03KT P6SM SCT040
     FM180600 VRB03KT 3SM BR SCT040
     FM180900 00000KT 3/4SM BR SCT008 SCT025
     FM181300 VRB03KT 6SM BR SCT008 SCT025
     FM181500 05006KT P6SM BKN025=

USA.gov is the U.S. government's official web portal to all federal, state and local government web resources and services.